OIZI  Iran Shahr  Airport

Iranshahr, Iran

Add Bookmark
ICAO OIZI
Type Airport
Status Operational
Latitude
27° 14' 9" N
27.236099
Longitude
60° 43' 12" E
60.720001
Local (DST + 5) UTC (GMT + 4)
Jul 7, 2015 07:09 Jul 7, 2015 02:39
Sunrise-Sunset Local UTC
Begin Civil Twilight 05:10 00:40
Sunrise 05:37 01:07
Sunset 07:26 14:56
End Civil Twilight 07:53 15:23
VFR
VFR
MVFR
MVFR
IFR
IFR
LIFR
LIFR
Unknown
Unavailable

Current Weather

METAR Observed
OIZI 070200Z 00000KT 6000 NSC 32/02 Q1000 Tue, Jul 7, 2015 @ 02:00 UTC
(39 Minutes ago)
Wind Visibility Conditions
Calm 6,003 m
  • No significant weather
Temperatures Readings Precipitation
Current Temp
32°C
90°F
Dewpoint
2°C
36°F
Humidity 15%
Altimeter 29.53" Hg
Sea Level Pressure 1,000 mb
Field Elevation
591 m
1,939 ft
None Recorded
-
-

CheckWX.com is intended as a tool to help pilots better visualize weather data. It is not intended as a substitute for an official weather briefing obtained from a Flight Service Station. CheckWX.com does not meet the FAA requirements for an official pre-flight weather briefing. Therefore, it's important that pilots still call and obtain an official FSS pre-flight weather briefing.

© 2007-2015 CheckWX.com
02:39:22 UTC